Airfield :
LOGIN :

Register | Disclaimer

   EN    FR    IT 

 










Legend :    VFR   Marginal VFR   IFR   Intensive IFR   Very Intensive IFR
Visi :
Ceiling :
>= 8 km
>= 3000ft
5 to 8 km
1000 to 3000 ft
1500m to 5 km
500 to 1000 ft
800 to 1500m
200 to 500 ft
< 800m
< 200 ft
Symbols :   Thunderstorms  Fog  Heavy snow  Heavy precipitations  Wind > 20 kt
SIGMETs :     Misc.  Thunderstorms  Icing  Turbulence  Mountain Waves  Volcanic Ashes







- Airport Elevation : 3 ft
- IATA code : DHR


EHKD - Den Helder De Kooy

CURRENT METAR :
  • 200055Z AUTO VRB02KT 3000 R21/3000D BR NCD M00/M01 Q1018 YLO

EXPIRED METARs :
  • 200046Z AUTO VRB02KT 3100 R21/P3000N BR NCD M00/M01 Q1018 YLO
  • 200025Z AUTO 11005KT 4500 BR NCD 01/M00 Q1018 GRN
  • 200006Z AUTO 11005KT 070V150 4900 BR NCD 01/00 Q1018 GRN
  • 192357Z AUTO 10004KT 070V140 4900 BR NCD 02/00 Q1018 GRN
  • 192355Z AUTO 10005KT 5000 BR NCD 01/00 Q1018 WHT
  • 192325Z AUTO 12005KT 5000 BR NCD 01/M00 Q1018 WHT RMK CB INFO NOT AVBL
  • 192255Z AUTO 12005KT 090V150 5000 BR FEW089 02/00 Q1018 WHT
  • 192225Z AUTO 14003KT 110V170 7000 BR OVC034 02/00 Q1018 WHT
  • 192205Z AUTO 13005KT 100V170 7000 BR OVC031 02/00 Q1018 WHT

TAF TAF EHKD
Valid from the 19 at 18:00 until the 20 at 06:00 UTC


191742Z 1918/2006 15006KT 4500 BR SCT020 BKN025
BECMG 1923/2001 09004KT
PROB30
TEMPO 2002/2006 2500
No reported NOTAMs for that airfield.



MET'MAP, your aeronautical weather chart ! - Copyright ORBIFLY December 2007 - Disclaimer

ORBIFLY MET'MAP TEAM :

Programming & Development : Alexandra Zaïnal
Concept & Development : Baudouin d'Aumeries
Co-Development & Prog : Marc-Olivier Méhu
Technical & hardware support : Manuel Goepfert

Contact : metmap@orbifly.com




SOURCES & CREDITS :

   NOAA